Time;durP1;ratioP1;P1;durP2;ratioP2;P2;SDS_P1;SDS_P2;PMS_P1;PMS_P2;Temp;Humidity;BMP_temperature;BMP_pressure;BME280_temperature;BME280_humidity;BME280_pressure;Samples;Min_cycle;Max_cycle;Signal;HPM_P1;HPM_P2
2022/10/22 00:00:10;;;;;;;40.63;20.15;;;11.80;99.90;;;;;;5112896;28;20478;-28
2022/10/22 00:02:36;;;;;;;47.45;19.92;;;11.80;99.90;;;;;;5114073;28;20104;-28
2022/10/22 00:05:02;;;;;;;46.15;20.83;;;11.30;99.90;;;;;;5112897;28;20044;-28
2022/10/22 00:07:28;;;;;;;34.80;19.73;;;11.60;99.90;;;;;;5112856;28;20075;-28
2022/10/22 00:09:54;;;;;;;47.30;23.13;;;11.80;99.90;;;;;;5114288;28;20480;-28
2022/10/22 00:12:19;;;;;;;43.47;21.58;;;11.30;99.90;;;;;;5113977;28;20043;-29
2022/10/22 00:14:45;;;;;;;39.60;21.27;;;11.60;99.90;;;;;;5112849;28;20043;-29
2022/10/22 00:17:11;;;;;;;54.45;23.50;;;11.60;99.90;;;;;;5114708;28;20431;-28
2022/10/22 00:19:38;;;;;;;43.95;22.02;;;11.50;99.90;;;;;;5113850;28;20134;-28
2022/10/22 00:22:06;;;;;;;39.25;21.48;;;11.10;99.90;;;;;;5113854;28;20058;-29
2022/10/22 00:24:32;;;;;;;56.65;24.25;;;11.20;99.90;;;;;;5112690;28;20050;-28
2022/10/22 00:26:58;;;;;;;36.92;20.35;;;11.30;99.90;;;;;;5114366;28;20075;-29
2022/10/22 00:29:24;;;;;;;36.90;19.80;;;11.30;99.90;;;;;;5112611;28;20079;-29
2022/10/22 00:31:50;;;;;;;60.22;23.20;;;11.00;99.90;;;;;;5113775;28;20047;-28
2022/10/22 00:34:17;;;;;;;46.53;21.15;;;11.40;99.90;;;;;;5113720;28;20052;-28
2022/10/22 00:36:43;;;;;;;50.83;22.15;;;11.30;99.90;;;;;;5113341;28;20496;-28
2022/10/22 00:39:09;;;;;;;38.17;20.42;;;11.20;99.90;;;;;;5113680;28;20043;-29
2022/10/22 00:41:34;;;;;;;49.35;22.20;;;10.90;99.90;;;;;;5114021;28;20046;-28
2022/10/22 00:44:03;;;;;;;43.03;21.48;;;11.00;99.90;;;;;;5112520;28;20465;-30
2022/10/22 00:46:29;;;;;;;38.22;20.13;;;11.30;99.90;;;;;;5112415;28;20043;-28
2022/10/22 00:48:57;;;;;;;42.50;21.02;;;11.00;99.90;;;;;;5113587;28;20081;-29
2022/10/22 00:51:27;;;;;;;50.67;20.63;;;10.80;99.90;;;;;;5113586;28;20043;-30
2022/10/22 00:54:01;;;;;;;41.28;21.42;;;11.00;99.90;;;;;;5095315;28;20075;-28
2022/10/22 00:56:27;;;;;;;47.60;23.00;;;10.60;99.90;;;;;;5114310;28;20086;-28
2022/10/22 00:58:56;;;;;;;52.15;22.48;;;11.10;99.90;;;;;;5113482;28;20083;-28
2022/10/22 01:01:26;;;;;;;47.83;21.70;;;11.00;99.90;;;;;;5113419;28;20079;-28
2022/10/22 01:03:52;;;;;;;48.85;22.55;;;10.90;99.90;;;;;;5112294;28;20044;-28
2022/10/22 01:06:24;;;;;;;53.95;23.02;;;10.60;99.90;;;;;;5113086;28;20497;-28
2022/10/22 01:09:14;;;;;;;55.63;23.15;;;10.60;99.90;;;;;;5113517;28;20079;-28
2022/10/22 01:12:06;;;;;;;43.17;21.35;;;10.60;99.90;;;;;;5114986;28;20055;-28
2022/10/22 01:14:53;;;;;;;48.17;19.75;;;10.60;99.90;;;;;;5115035;28;20138;-28
2022/10/22 01:17:47;;;;;;;38.55;19.48;;;10.60;99.90;;;;;;5117025;28;20148;-29
2022/10/22 01:20:40;;;;;;;47.28;21.17;;;10.60;99.90;;;;;;5116950;28;20047;-29
2022/10/22 01:23:36;;;;;;;36.22;19.35;;;10.60;99.90;;;;;;5116939;28;20047;-29
2022/10/22 01:26:36;;;;;;;31.08;17.27;;;10.60;99.90;;;;;;5116830;28;20130;-28
2022/10/22 01:29:12;;;;;;;41.97;19.48;;;10.70;99.90;;;;;;5116075;28;20059;-28
2022/10/22 01:31:43;;;;;;;35.35;18.45;;;10.70;99.90;;;;;;5117372;28;20047;-29
2022/10/22 01:34:13;;;;;;;34.95;18.75;;;11.30;99.90;;;;;;5115760;28;20044;-29
2022/10/22 01:36:40;;;;;;;47.78;20.08;;;11.30;99.90;;;;;;5116680;28;20412;-28
2022/10/22 01:39:07;;;;;;;46.38;21.08;;;11.40;99.90;;;;;;5116636;28;20062;-29
2022/10/22 01:41:34;;;;;;;33.10;17.55;;;11.10;99.90;;;;;;5116494;28;20100;-29
2022/10/22 01:44:00;;;;;;;33.60;17.80;;;11.80;99.90;;;;;;5116998;28;20043;-28
2022/10/22 01:46:27;;;;;;;42.80;20.58;;;11.50;99.90;;;;;;5115198;28;20052;-29
2022/10/22 01:48:59;;;;;;;32.55;18.40;;;11.30;99.90;;;;;;5117215;28;20079;-29
2022/10/22 01:51:30;;;;;;;30.57;16.33;;;11.40;99.90;;;;;;5116980;28;20123;-28
2022/10/22 01:54:31;;;;;;;36.20;17.20;;;11.40;99.90;;;;;;5115127;28;20043;-30
2022/10/22 01:57:19;;;;;;;31.67;17.33;;;11.80;99.90;;;;;;5116523;28;20385;-29
2022/10/22 02:00:04;;;;;;;30.00;15.88;;;11.40;99.90;;;;;;5116521;28;20122;-29
2022/10/22 02:02:36;;;;;;;37.13;17.52;;;11.40;99.90;;;;;;5116357;28;20079;-28
2022/10/22 02:05:31;;;;;;;25.25;13.80;;;11.90;99.90;;;;;;5116991;28;20089;-28
2022/10/22 02:08:01;;;;;;;33.42;16.02;;;11.90;99.90;;;;;;5112212;28;20481;-29
2022/10/22 02:10:29;;;;;;;30.75;15.15;;;11.40;99.90;;;;;;5116041;28;20051;-28
2022/10/22 02:12:57;;;;;;;28.75;14.27;;;11.70;99.90;;;;;;5115856;28;20040;-29
2022/10/22 02:15:25;;;;;;;32.47;14.30;;;11.40;99.90;;;;;;5116117;28;20424;-29
2022/10/22 02:17:53;;;;;;;34.03;16.20;;;11.80;99.90;;;;;;5116350;28;20044;-28
2022/10/22 02:20:31;;;;;;;30.45;15.50;;;11.90;99.90;;;;;;5116007;28;20044;-28
2022/10/22 02:22:59;;;;;;;28.15;13.52;;;11.30;99.90;;;;;;5098534;28;20509;-28
2022/10/22 02:25:29;;;;;;;30.55;15.13;;;11.40;99.90;;;;;;5115489;28;20062;-28
2022/10/22 02:28:08;;;;;;;26.10;13.88;;;11.50;99.90;;;;;;5114955;28;20153;-29
2022/10/22 02:30:36;;;;;;;35.65;15.20;;;11.90;99.90;;;;;;5115620;28;20134;-28
2022/10/22 02:33:11;;;;;;;23.80;13.80;;;12.20;99.90;;;;;;5115527;28;20086;-29
2022/10/22 02:35:40;;;;;;;27.25;16.05;;;11.80;99.90;;;;;;5114181;28;20504;-29
2022/10/22 02:38:07;;;;;;;31.13;16.60;;;12.00;99.90;;;;;;5115466;28;20054;-29
2022/10/22 02:40:33;;;;;;;29.40;14.25;;;12.20;99.90;;;;;;5115122;28;20489;-29
2022/10/22 02:42:58;;;;;;;31.35;15.90;;;12.40;99.90;;;;;;5115334;28;20073;-30
2022/10/22 02:45:24;;;;;;;37.28;16.20;;;12.40;99.90;;;;;;5115824;28;20054;-30
2022/10/22 02:47:50;;;;;;;24.52;14.30;;;11.80;99.90;;;;;;5097301;28;20513;-30
2022/10/22 02:50:16;;;;;;;25.65;14.77;;;11.90;99.90;;;;;;5115213;28;20043;-29
2022/10/22 02:52:42;;;;;;;26.08;14.52;;;12.30;99.90;;;;;;5115158;28;20118;-30
2022/10/22 02:55:08;;;;;;;24.58;15.13;;;11.90;99.90;;;;;;5115793;28;20093;-29
2022/10/22 02:57:34;;;;;;;30.35;15.00;;;11.90;99.90;;;;;;5115017;28;20188;-29
2022/10/22 02:59:59;;;;;;;23.55;13.75;;;11.90;99.90;;;;;;5114045;28;20084;-29
2022/10/22 03:02:25;;;;;;;33.38;15.45;;;12.50;99.90;;;;;;5096700;28;20051;-29
2022/10/22 03:04:51;;;;;;;28.75;14.80;;;12.00;99.90;;;;;;5114750;28;20051;-29
2022/10/22 03:07:16;;;;;;;28.23;13.77;;;12.40;99.90;;;;;;5114871;28;20049;-29
2022/10/22 03:09:42;;;;;;;29.67;14.18;;;12.00;99.90;;;;;;5114367;28;20047;-29
2022/10/22 03:12:08;;;;;;;27.02;13.63;;;12.00;99.90;;;;;;5114808;28;20048;-30
2022/10/22 03:14:34;;;;;;;28.95;14.50;;;11.90;99.90;;;;;;5115154;28;20132;-29
2022/10/22 03:17:00;;;;;;;26.52;12.93;;;12.40;99.90;;;;;;5113964;28;20109;-29
2022/10/22 03:19:25;;;;;;;26.83;13.55;;;11.90;99.90;;;;;;5113394;28;20072;-29
2022/10/22 03:21:59;;;;;;;29.30;13.98;;;11.90;99.90;;;;;;5114846;28;20044;-29
2022/10/22 03:24:30;;;;;;;28.70;13.63;;;12.30;99.90;;;;;;5113595;28;20497;-29
2022/10/22 03:26:57;;;;;;;25.27;12.80;;;12.10;99.90;;;;;;5114551;28;20051;-30
2022/10/22 03:29:25;;;;;;;30.65;14.32;;;11.70;99.90;;;;;;5115041;28;20051;-29
2022/10/22 03:31:52;;;;;;;38.17;15.70;;;12.10;99.90;;;;;;5113118;28;20437;-29
2022/10/22 03:34:18;;;;;;;26.30;13.68;;;12.00;99.90;;;;;;5113578;28;20047;-29
2022/10/22 03:36:44;;;;;;;30.38;14.43;;;12.00;99.90;;;;;;5114073;28;20063;-30
2022/10/22 03:39:13;;;;;;;30.33;13.73;;;12.10;99.90;;;;;;5113326;28;20055;-29
2022/10/22 03:41:39;;;;;;;30.58;14.00;;;11.90;99.90;;;;;;5114292;28;20059;-30
2022/10/22 03:44:05;;;;;;;32.97;14.05;;;11.60;99.90;;;;;;5114208;28;20044;-30
2022/10/22 03:46:31;;;;;;;27.10;13.23;;;11.70;99.90;;;;;;5114253;28;20039;-30
2022/10/22 03:48:57;;;;;;;27.80;14.63;;;11.50;99.90;;;;;;5113728;28;20488;-29
2022/10/22 03:51:25;;;;;;;33.33;15.20;;;11.70;99.90;;;;;;5114101;28;20126;-29
2022/10/22 03:53:51;;;;;;;26.25;14.10;;;11.60;99.90;;;;;;5114987;28;20410;-30
2022/10/22 03:56:16;;;;;;;29.90;15.00;;;11.90;99.90;;;;;;5113272;28;20139;-29
2022/10/22 03:58:42;;;;;;;34.08;14.63;;;12.00;99.90;;;;;;5114616;28;20132;-29
2022/10/22 04:01:10;;;;;;;28.27;15.00;;;11.70;99.90;;;;;;5096082;28;20073;-29
2022/10/22 04:03:36;;;;;;;33.60;14.85;;;11.90;99.90;;;;;;5114032;28;20112;-29
2022/10/22 04:06:11;;;;;;;39.47;15.25;;;11.50;99.90;;;;;;5113324;28;20047;-29
2022/10/22 04:08:39;;;;;;;29.00;15.10;;;11.70;99.90;;;;;;5113070;28;20462;-30
2022/10/22 04:11:05;;;;;;;33.38;15.52;;;11.70;99.90;;;;;;5114613;28;20134;-31
2022/10/22 04:13:31;;;;;;;34.60;16.27;;;11.70;99.90;;;;;;5114496;28;20086;-29
2022/10/22 04:16:09;;;;;;;30.35;14.77;;;11.30;99.90;;;;;;5113571;28;20447;-29
2022/10/22 04:18:35;;;;;;;31.63;15.93;;;11.50;99.90;;;;;;5113144;28;20044;-29
2022/10/22 04:21:01;;;;;;;33.60;15.77;;;11.60;99.90;;;;;;5112402;28;20397;-30
2022/10/22 04:23:27;;;;;;;40.45;16.83;;;11.50;99.90;;;;;;5112979;28;20044;-29
2022/10/22 04:26:05;;;;;;;28.73;16.10;;;11.40;99.90;;;;;;5095970;28;20050;-29
2022/10/22 04:28:32;;;;;;;34.03;16.02;;;11.70;99.90;;;;;;5112874;28;20043;-29
2022/10/22 04:30:58;;;;;;;35.47;15.98;;;11.10;99.90;;;;;;5113808;28;20051;-30
2022/10/22 04:33:23;;;;;;;35.58;15.20;;;11.60;99.90;;;;;;5112837;28;20172;-31
2022/10/22 04:35:49;;;;;;;29.83;15.98;;;11.40;99.90;;;;;;5112281;28;20561;-29
2022/10/22 04:38:15;;;;;;;31.13;16.17;;;11.60;99.90;;;;;;5113314;28;20051;-30
2022/10/22 04:40:41;;;;;;;27.13;15.20;;;11.20;99.90;;;;;;5112752;28;20055;-30
2022/10/22 04:43:06;;;;;;;34.78;15.43;;;11.20;99.90;;;;;;5114224;28;20046;-30
2022/10/22 04:45:33;;;;;;;30.13;15.75;;;11.70;99.90;;;;;;5115861;28;20052;-31
2022/10/22 04:47:59;;;;;;;31.30;16.70;;;11.40;99.90;;;;;;5117636;28;20043;-31
2022/10/22 04:50:25;;;;;;;34.33;16.27;;;11.70;99.90;;;;;;5117495;28;20062;-30
2022/10/22 04:52:51;;;;;;;31.13;15.43;;;11.30;99.90;;;;;;5117756;28;20043;-29
2022/10/22 04:55:17;;;;;;;49.35;17.48;;;11.60;99.90;;;;;;5116283;28;20039;-29
2022/10/22 04:57:43;;;;;;;34.60;16.08;;;11.20;99.90;;;;;;5118190;28;20048;-30
2022/10/22 05:00:09;;;;;;;34.42;16.30;;;11.80;99.90;;;;;;5116115;28;20043;-29
2022/10/22 05:02:35;;;;;;;37.92;16.95;;;11.70;99.90;;;;;;5116170;28;20044;-29
2022/10/22 05:05:01;;;;;;;51.25;18.17;;;11.80;99.90;;;;;;5116736;28;20054;-30
2022/10/22 05:07:27;;;;;;;38.10;16.77;;;11.60;99.90;;;;;;5117184;28;20054;-29
2022/10/22 05:09:53;;;;;;;37.85;16.80;;;11.60;99.90;;;;;;5116166;28;20040;-30
2022/10/22 05:12:18;;;;;;;25.42;14.60;;;11.40;99.90;;;;;;5116211;28;20059;-31
2022/10/22 05:14:44;;;;;;;31.25;14.90;;;11.20;99.90;;;;;;5115945;28;20070;-30
2022/10/22 05:17:10;;;;;;;34.75;15.77;;;11.50;99.90;;;;;;5116017;28;20082;-29
2022/10/22 05:19:36;;;;;;;27.75;15.82;;;11.40;99.90;;;;;;5115993;28;20127;-30
2022/10/22 05:22:03;;;;;;;30.50;15.05;;;11.30;99.90;;;;;;5116943;28;20044;-29
2022/10/22 05:24:30;;;;;;;33.00;15.43;;;11.60;99.90;;;;;;5115704;28;20043;-30
2022/10/22 05:26:58;;;;;;;30.70;15.05;;;11.40;99.90;;;;;;5116784;28;20047;-29
2022/10/22 05:29:24;;;;;;;31.38;15.43;;;11.50;99.90;;;;;;5116712;28;20493;-29
2022/10/22 05:31:50;;;;;;;34.60;15.38;;;11.60;99.90;;;;;;5116351;28;20044;-29
2022/10/22 05:34:16;;;;;;;44.55;15.88;;;11.20;99.90;;;;;;5116651;28;20506;-30
2022/10/22 05:36:43;;;;;;;31.15;15.73;;;11.60;99.90;;;;;;5116753;28;20138;-31
2022/10/22 05:39:09;;;;;;;35.35;15.68;;;11.20;99.90;;;;;;5116262;28;20398;-31
2022/10/22 05:41:35;;;;;;;33.20;16.45;;;11.00;99.90;;;;;;5116496;28;20078;-29
2022/10/22 05:44:01;;;;;;;45.90;17.35;;;11.60;99.90;;;;;;5116464;27;20044;-30
2022/10/22 05:46:29;;;;;;;25.80;14.98;;;11.20;99.90;;;;;;5116666;28;20500;-30
2022/10/22 05:49:01;;;;;;;32.92;16.10;;;11.20;99.90;;;;;;5116912;28;20040;-29
2022/10/22 05:51:29;;;;;;;32.38;15.57;;;11.60;99.90;;;;;;5116336;28;20044;-29
2022/10/22 05:53:59;;;;;;;31.55;15.32;;;11.70;99.90;;;;;;5116221;28;20093;-29
2022/10/22 05:56:26;;;;;;;34.55;15.15;;;11.60;99.90;;;;;;5115633;28;20078;-30
2022/10/22 05:58:53;;;;;;;29.60;15.40;;;11.30;99.90;;;;;;5115853;28;20490;-29
2022/10/22 06:01:24;;;;;;;34.60;16.00;;;11.50;99.90;;;;;;5116048;28;20044;-30
2022/10/22 06:03:56;;;;;;;38.25;17.02;;;11.60;99.90;;;;;;5097889;28;20082;-30
2022/10/22 06:06:30;;;;;;;30.42;16.83;;;11.50;99.90;;;;;;5116147;28;20044;-30
2022/10/22 06:09:01;;;;;;;21.85;14.23;;;11.30;99.90;;;;;;5116971;28;20039;-30
2022/10/22 06:11:26;;;;;;;33.83;14.93;;;11.40;99.90;;;;;;5116913;28;20083;-29
2022/10/22 06:13:52;;;;;;;34.95;13.80;;;11.40;99.90;;;;;;5115869;28;20043;-30
2022/10/22 06:16:18;;;;;;;41.88;14.95;;;11.50;99.90;;;;;;5114995;28;20040;-30
2022/10/22 06:18:44;;;;;;;28.25;14.75;;;11.80;99.90;;;;;;5115917;28;20445;-29
2022/10/22 06:21:12;;;;;;;43.60;15.75;;;11.40;99.90;;;;;;5115837;28;20485;-30
2022/10/22 06:23:38;;;;;;;32.40;15.52;;;11.40;99.90;;;;;;5115754;28;20051;-29
2022/10/22 06:26:05;;;;;;;36.42;14.25;;;11.90;99.90;;;;;;5115954;28;20071;-29
2022/10/22 06:28:32;;;;;;;28.20;15.75;;;11.50;99.90;;;;;;5115611;28;20047;-29
2022/10/22 06:30:59;;;;;;;29.80;14.30;;;11.50;99.90;;;;;;5115594;28;20121;-29
2022/10/22 06:33:25;;;;;;;33.17;16.13;;;11.50;99.90;;;;;;5114625;28;20169;-29
2022/10/22 06:35:51;;;;;;;34.90;14.88;;;11.90;99.90;;;;;;5113980;28;20059;-29
2022/10/22 06:38:17;;;;;;;29.25;14.52;;;11.60;99.90;;;;;;5116330;28;20054;-29
2022/10/22 06:40:43;;;;;;;27.33;13.98;;;11.70;99.90;;;;;;5116012;28;20465;-29
2022/10/22 06:43:13;;;;;;;26.20;14.40;;;11.60;99.90;;;;;;5115972;28;20048;-29
2022/10/22 06:45:39;;;;;;;29.73;14.10;;;11.90;99.90;;;;;;5114993;28;20039;-30
2022/10/22 06:48:05;;;;;;;30.55;14.48;;;11.80;99.90;;;;;;5115278;27;20044;-30
2022/10/22 06:50:34;;;;;;;25.23;13.35;;;11.80;99.90;;;;;;5115765;28;20079;-29
2022/10/22 06:52:59;;;;;;;25.95;14.88;;;11.90;99.90;;;;;;5115134;28;20043;-30
2022/10/22 06:55:25;;;;;;;27.48;14.38;;;11.80;99.90;;;;;;5115104;28;20393;-29
2022/10/22 06:57:51;;;;;;;38.75;17.45;;;12.30;99.90;;;;;;5113929;28;20054;-29
2022/10/22 07:00:17;;;;;;;29.23;13.93;;;12.40;99.90;;;;;;5114102;28;20089;-29
2022/10/22 07:02:43;;;;;;;31.92;15.35;;;12.30;99.90;;;;;;5114928;28;20120;-30
2022/10/22 07:05:08;;;;;;;27.98;14.48;;;12.40;99.90;;;;;;5114995;28;20047;-29
2022/10/22 07:07:34;;;;;;;38.88;14.60;;;12.60;99.90;;;;;;5114863;28;20047;-30
2022/10/22 07:10:00;;;;;;;27.13;12.65;;;12.50;99.90;;;;;;5115149;28;20046;-30
2022/10/22 07:12:25;;;;;;;30.90;12.77;;;12.50;99.90;;;;;;5114658;27;20052;-29
2022/10/22 07:14:51;;;;;;;41.08;14.98;;;12.40;99.90;;;;;;5114743;28;20112;-29
2022/10/22 07:17:17;;;;;;;35.28;12.23;;;12.60;99.90;;;;;;5114467;28;20048;-29
2022/10/22 07:19:42;;;;;;;28.20;13.10;;;12.80;99.90;;;;;;5114957;28;20131;-29
2022/10/22 07:22:08;;;;;;;35.25;13.00;;;12.80;99.90;;;;;;5114598;28;20453;-31
2022/10/22 07:24:34;;;;;;;38.40;13.63;;;12.80;99.90;;;;;;5114601;28;20055;-29
2022/10/22 07:26:59;;;;;;;31.83;11.80;;;12.90;99.90;;;;;;5113556;28;20044;-29
2022/10/22 07:29:25;;;;;;;26.35;11.80;;;12.90;99.90;;;;;;5114478;28;20476;-29
2022/10/22 07:31:51;;;;;;;24.55;10.95;;;12.90;99.90;;;;;;5114590;28;20126;-28
2022/10/22 07:34:16;;;;;;;18.88;9.15;;;12.80;99.90;;;;;;5114364;28;20363;-31
2022/10/22 07:36:42;;;;;;;15.63;10.60;;;12.90;99.90;;;;;;5114554;28;20098;-28
2022/10/22 07:39:08;;;;;;;27.45;10.98;;;13.00;99.90;;;;;;5113441;28;20572;-29
2022/10/22 07:41:34;;;;;;;22.98;10.35;;;12.90;99.90;;;;;;5115170;28;20073;-29
2022/10/22 07:43:59;;;;;;;16.80;9.25;;;13.00;99.90;;;;;;5113539;28;20462;-29
2022/10/22 07:46:26;;;;;;;23.02;9.65;;;13.10;99.90;;;;;;5113133;28;20043;-29
2022/10/22 07:48:51;;;;;;;18.83;8.95;;;13.20;99.90;;;;;;5114934;28;20051;-29
2022/10/22 07:51:17;;;;;;;27.00;8.65;;;13.10;99.90;;;;;;5114820;28;20048;-29
2022/10/22 07:53:43;;;;;;;23.50;8.45;;;13.30;99.90;;;;;;5113918;28;20151;-29
2022/10/22 07:56:09;;;;;;;16.27;8.23;;;13.30;99.90;;;;;;5096793;28;20089;-29
2022/10/22 07:58:35;;;;;;;18.05;8.05;;;13.40;99.90;;;;;;5114194;28;20069;-29
2022/10/22 08:01:04;;;;;;;16.10;7.65;;;13.30;99.90;;;;;;5113072;28;20048;-29
2022/10/22 08:03:30;;;;;;;22.20;7.00;;;13.30;99.90;;;;;;5114137;28;20568;-29
2022/10/22 08:05:56;;;;;;;43.47;8.70;;;13.40;99.90;;;;;;5114152;28;20498;-29
2022/10/22 08:08:22;;;;;;;15.25;6.78;;;13.40;99.90;;;;;;5114126;28;20127;-29
2022/10/22 08:10:51;;;;;;;24.77;7.75;;;13.40;99.90;;;;;;5113099;28;20087;-29
2022/10/22 08:13:18;;;;;;;21.92;8.10;;;13.50;99.90;;;;;;5114695;28;20051;-30
2022/10/22 08:15:45;;;;;;;21.33;7.25;;;13.60;99.90;;;;;;5114246;28;20054;-29
2022/10/22 08:18:11;;;;;;;19.33;7.20;;;13.60;99.90;;;;;;5114033;28;20485;-29
2022/10/22 08:20:37;;;;;;;12.63;6.30;;;13.70;99.90;;;;;;5117486;28;20068;-29
2022/10/22 08:23:03;;;;;;;13.65;5.88;;;13.70;99.90;;;;;;5118180;28;20051;-29
2022/10/22 08:25:29;;;;;;;15.18;7.00;;;13.70;99.90;;;;;;5118194;27;20111;-30
2022/10/22 08:27:54;;;;;;;21.90;6.65;;;13.80;99.90;;;;;;5118891;28;20495;-29
2022/10/22 08:30:20;;;;;;;20.63;7.13;;;13.90;99.90;;;;;;5118640;28;20051;-29
2022/10/22 08:32:46;;;;;;;23.92;7.63;;;14.00;99.90;;;;;;5118552;28;20039;-30
2022/10/22 08:35:12;;;;;;;16.58;6.55;;;14.10;99.90;;;;;;5117863;28;20089;-29
2022/10/22 08:37:37;;;;;;;17.13;6.40;;;14.10;99.90;;;;;;5118301;28;20064;-29
2022/10/22 08:40:04;;;;;;;11.93;5.10;;;14.30;99.90;;;;;;5116731;28;20113;-30
2022/10/22 08:42:52;;;;;;;26.73;7.22;;;14.50;99.90;;;;;;5117088;28;20122;-30
2022/10/22 08:45:17;;;;;;;18.00;5.30;;;14.60;99.90;;;;;;5116631;28;20126;-31
2022/10/22 08:48:02;;;;;;;19.38;5.43;;;14.70;99.90;;;;;;5117696;28;20134;-31
2022/10/22 08:50:34;;;;;;;18.83;4.78;;;14.80;99.90;;;;;;5117675;28;20039;-30
2022/10/22 08:53:05;;;;;;;24.30;6.25;;;14.80;99.90;;;;;;5117970;28;20101;-31
2022/10/22 08:55:32;;;;;;;16.25;4.90;;;14.80;99.90;;;;;;5117310;28;20047;-32
2022/10/22 08:58:02;;;;;;;13.35;4.97;;;14.90;99.90;;;;;;5117191;28;20398;-30
2022/10/22 09:00:41;;;;;;;14.05;4.15;;;15.00;99.90;;;;;;5117432;28;20560;-32
2022/10/22 09:03:37;;;;;;;24.25;4.78;;;15.10;99.90;;;;;;5117302;28;20122;-32
2022/10/22 09:06:12;;;;;;;16.67;4.00;;;15.30;99.90;;;;;;5117948;28;20040;-30
2022/10/22 09:08:40;;;;;;;17.67;3.80;;;15.50;99.90;;;;;;5116358;28;20062;-29
2022/10/22 09:11:24;;;;;;;22.73;3.95;;;16.00;99.90;;;;;;5099267;28;20130;-30
2022/10/22 09:13:53;;;;;;;24.27;4.28;;;16.70;99.90;;;;;;5117108;28;20137;-29
2022/10/22 09:16:23;;;;;;;13.55;4.07;;;17.00;99.90;;;;;;5117052;28;20104;-29
2022/10/22 09:19:16;;;;;;;10.15;3.20;;;17.10;99.90;;;;;;5117440;28;20123;-29
2022/10/22 09:21:45;;;;;;;16.60;4.07;;;17.00;99.90;;;;;;5116401;28;20047;-29
2022/10/22 09:24:12;;;;;;;13.00;3.67;;;17.10;99.90;;;;;;5116949;27;20055;-29
2022/10/22 09:26:40;;;;;;;20.80;3.80;;;17.00;99.90;;;;;;5098995;28;20092;-29
2022/10/22 09:29:08;;;;;;;22.60;3.90;;;17.10;99.90;;;;;;5116901;28;20040;-29
2022/10/22 09:31:34;;;;;;;35.22;4.32;;;17.00;99.90;;;;;;5114586;28;20051;-30
2022/10/22 09:34:04;;;;;;;10.80;3.15;;;16.80;99.90;;;;;;5117623;28;20466;-29
2022/10/22 09:36:31;;;;;;;30.92;4.95;;;16.40;99.90;;;;;;5115622;28;20063;-29
2022/10/22 09:38:57;;;;;;;10.45;3.22;;;16.20;99.90;;;;;;5115673;28;20452;-28
2022/10/22 09:41:28;;;;;;;12.25;3.15;;;16.10;99.90;;;;;;5116625;28;20130;-28
2022/10/22 09:43:54;;;;;;;21.13;3.05;;;16.00;99.90;;;;;;5117237;28;20135;-29
2022/10/22 09:46:23;;;;;;;18.05;3.13;;;16.00;99.90;;;;;;5116550;28;20469;-29
2022/10/22 09:48:55;;;;;;;30.75;3.92;;;16.00;99.90;;;;;;5099113;28;20083;-29
2022/10/22 09:51:24;;;;;;;20.63;4.10;;;16.00;99.90;;;;;;5116459;28;20130;-29
2022/10/22 09:53:59;;;;;;;14.90;3.40;;;16.10;99.90;;;;;;5115164;28;20130;-29
2022/10/22 09:56:34;;;;;;;10.48;3.30;;;16.00;99.90;;;;;;5116920;28;20126;-29
2022/10/22 09:59:00;;;;;;;17.85;3.85;;;16.00;99.90;;;;;;5116302;28;20438;-29
2022/10/22 10:01:28;;;;;;;20.05;4.28;;;16.00;99.90;;;;;;5115276;28;20126;-29
2022/10/22 10:04:06;;;;;;;13.43;3.30;;;16.10;99.90;;;;;;5116540;28;20044;-28
2022/10/22 10:06:34;;;;;;;34.33;4.97;;;16.10;99.90;;;;;;5115568;28;20062;-29
2022/10/22 10:09:04;;;;;;;18.40;3.65;;;16.10;99.90;;;;;;5099032;28;20104;-30
2022/10/22 10:12:03;;;;;;;13.13;3.30;;;16.30;99.90;;;;;;5116149;28;20051;-29
2022/10/22 10:14:57;;;;;;;17.02;3.60;;;16.20;99.90;;;;;;5116048;28;20464;-29
2022/10/22 10:18:13;;;;;;;14.63;3.50;;;16.30;99.90;;;;;;5115552;28;20047;-29
2022/10/22 10:20:52;;;;;;;29.35;3.70;;;16.40;99.90;;;;;;5106283;28;20568;-30
2022/10/22 10:23:46;;;;;;;18.42;3.50;;;17.00;99.90;;;;;;5115889;28;20048;-29
2022/10/22 10:26:36;;;;;;;13.82;4.97;;;17.20;99.90;;;;;;5115722;28;20043;-29
2022/10/22 10:29:28;;;;;;;21.50;4.38;;;17.10;99.90;;;;;;5116633;28;20043;-31
2022/10/22 10:32:20;;;;;;;14.65;3.63;;;16.80;99.90;;;;;;5115304;28;20059;-29
2022/10/22 10:35:00;;;;;;;28.88;5.20;;;16.60;99.90;;;;;;5116178;28;20491;-29
2022/10/22 10:37:29;;;;;;;15.27;3.95;;;16.30;99.90;;;;;;5115901;28;20152;-29
2022/10/22 10:40:18;;;;;;;15.63;3.25;;;16.20;99.90;;;;;;5115443;28;20048;-29
2022/10/22 10:43:08;;;;;;;13.38;3.83;;;16.20;99.90;;;;;;5115211;28;20044;-29
2022/10/22 10:45:46;;;;;;;12.50;3.22;;;16.30;99.90;;;;;;5115517;28;20044;-29
2022/10/22 10:48:21;;;;;;;12.48;3.33;;;16.20;99.90;;;;;;5114457;28;20058;-29
2022/10/22 10:51:14;;;;;;;11.90;4.25;;;16.30;99.90;;;;;;5114588;28;20043;-31
2022/10/22 10:54:08;;;;;;;16.63;4.82;;;16.20;99.90;;;;;;5114738;28;20054;-28
2022/10/22 10:56:41;;;;;;;12.50;4.28;;;16.20;99.90;;;;;;5115138;28;20047;-29
2022/10/22 10:59:16;;;;;;;10.77;3.00;;;16.10;99.90;;;;;;5115209;28;20043;-29
2022/10/22 11:01:50;;;;;;;14.13;4.22;;;16.00;99.90;;;;;;5115048;27;20096;-29
2022/10/22 11:04:47;;;;;;;16.63;3.65;;;16.10;99.90;;;;;;5115106;28;20090;-29
2022/10/22 11:07:18;;;;;;;11.57;3.20;;;16.20;99.90;;;;;;5115057;28;20159;-29
2022/10/22 11:10:19;;;;;;;18.40;3.25;;;16.20;99.90;;;;;;5113715;28;20048;-29
2022/10/22 11:12:50;;;;;;;22.95;3.97;;;16.70;99.90;;;;;;5113337;28;20055;-29
2022/10/22 11:15:31;;;;;;;15.75;3.25;;;16.90;99.90;;;;;;5114883;28;20051;-30
2022/10/22 11:18:19;;;;;;;6.63;2.67;;;17.20;99.90;;;;;;5114848;28;20048;-30
2022/10/22 11:21:02;;;;;;;8.27;2.90;;;17.50;99.90;;;;;;5113238;28;20055;-29
2022/10/22 11:23:35;;;;;;;44.47;4.63;;;17.80;99.90;;;;;;5115579;28;20052;-29
2022/10/22 11:26:03;;;;;;;15.35;2.58;;;18.20;99.90;;;;;;5096515;28;20055;-30
2022/10/22 11:28:36;;;;;;;9.45;2.42;;;18.30;99.90;;;;;;5114611;28;20043;-29
2022/10/22 11:31:11;;;;;;;21.15;3.65;;;17.90;99.90;;;;;;5114612;28;20135;-29
2022/10/22 11:34:14;;;;;;;20.98;4.28;;;17.50;99.90;;;;;;5115115;28;20453;-30
2022/10/22 11:36:42;;;;;;;15.20;3.33;;;17.00;99.90;;;;;;5115157;28;20055;-29
2022/10/22 11:39:46;;;;;;;17.77;4.80;;;16.70;99.90;;;;;;5114414;28;20126;-29
2022/10/22 11:42:21;;;;;;;45.15;6.13;;;16.60;99.90;;;;;;5113512;28;20050;-28
2022/10/22 11:44:59;;;;;;;14.57;4.78;;;16.40;99.90;;;;;;5115252;28;20048;-28
2022/10/22 11:47:30;;;;;;;32.88;5.65;;;16.10;99.90;;;;;;5114364;28;20052;-29
2022/10/22 11:50:14;;;;;;;25.75;6.10;;;16.00;99.90;;;;;;5095847;28;20082;-29
2022/10/22 11:53:06;;;;;;;15.27;5.90;;;15.90;99.90;;;;;;5114903;28;20065;-28
2022/10/22 11:55:58;;;;;;;14.13;4.78;;;15.70;99.90;;;;;;5113994;28;20389;-28
2022/10/22 11:58:27;;;;;;;15.73;5.30;;;15.50;99.90;;;;;;5115114;28;20476;-28
2022/10/22 12:00:54;;;;;;;12.10;5.00;;;15.60;99.90;;;;;;5112939;28;20485;-29
2022/10/22 12:03:39;;;;;;;20.83;5.50;;;15.60;99.90;;;;;;5114174;28;20251;-28
2022/10/22 12:06:18;;;;;;;20.98;5.88;;;15.60;99.90;;;;;;5114474;28;20051;-29
2022/10/22 12:08:53;;;;;;;11.93;5.47;;;15.70;99.90;;;;;;5114133;28;20091;-28
2022/10/22 12:11:26;;;;;;;8.85;3.60;;;15.60;99.90;;;;;;5114321;28;20512;-28
2022/10/22 12:14:01;;;;;;;15.05;5.22;;;15.50;99.90;;;;;;5114149;28;20504;-28
2022/10/22 12:16:37;;;;;;;20.30;6.00;;;15.50;99.90;;;;;;5096719;28;20043;-30
2022/10/22 12:19:14;;;;;;;12.32;5.68;;;15.50;99.90;;;;;;5108473;28;20414;-29
2022/10/22 12:21:45;;;;;;;11.55;7.10;;;15.50;99.90;;;;;;5103040;28;20063;-29
2022/10/22 12:24:17;;;;;;;31.20;8.30;;;15.50;99.90;;;;;;5113209;28;20048;-29
2022/10/22 12:26:44;;;;;;;17.38;6.35;;;15.60;99.90;;;;;;5113960;28;20043;-29
2022/10/22 12:29:13;;;;;;;19.10;6.95;;;15.60;99.90;;;;;;5114139;28;20096;-28
2022/10/22 12:31:41;;;;;;;42.20;9.05;;;15.60;99.90;;;;;;5113826;28;20042;-28
2022/10/22 12:34:21;;;;;;;45.67;9.60;;;15.70;99.90;;;;;;5113885;28;20485;-28
2022/10/22 12:36:48;;;;;;;27.02;7.10;;;15.70;99.90;;;;;;5113811;28;20063;-29
2022/10/22 12:39:20;;;;;;;17.83;5.85;;;15.80;99.90;;;;;;5113791;28;20059;-28
2022/10/22 12:41:46;;;;;;;10.48;4.80;;;15.80;99.90;;;;;;5114405;28;20040;-29
2022/10/22 12:44:14;;;;;;;23.02;4.75;;;15.80;99.90;;;;;;5112807;28;20053;-29
2022/10/22 12:46:42;;;;;;;25.67;5.25;;;16.00;99.90;;;;;;5114254;28;20043;-29
2022/10/22 12:49:15;;;;;;;16.75;2.65;;;16.20;99.90;;;;;;5113411;28;20497;-29